createdAt,value
2018-03-31T00:00:51.473Z,84.84
2018-03-31T00:01:51.459Z,85.03
2018-03-31T00:02:51.447Z,84.74
2018-03-31T00:03:51.427Z,84.65
2018-03-31T00:04:51.417Z,84.27
2018-03-31T00:05:51.405Z,84.27
2018-03-31T00:06:51.389Z,84.84
2018-03-31T00:07:51.375Z,84.46
2018-03-31T00:08:51.358Z,84.36
2018-03-31T00:09:51.342Z,84.36
2018-03-31T00:10:51.329Z,84.46
2018-03-31T00:11:51.314Z,83.89
2018-03-31T00:12:51.304Z,83.80
2018-03-31T00:13:51.288Z,83.98
2018-03-31T00:14:51.272Z,84.03
2018-03-31T00:15:51.269Z,83.84
2018-03-31T00:16:51.251Z,83.74
2018-03-31T00:17:51.239Z,83.74
2018-03-31T00:18:51.223Z,84.41
2018-03-31T00:19:51.206Z,84.41
2018-03-31T00:20:51.192Z,83.74
2018-03-31T00:21:51.174Z,83.55
2018-03-31T00:22:51.164Z,83.98
2018-03-31T00:23:51.147Z,84.36
2018-03-31T00:24:51.137Z,84.65
2018-03-31T00:25:51.120Z,84.94
2018-03-31T00:26:51.105Z,85.31
2018-03-31T00:27:51.094Z,85.69
2018-03-31T00:28:51.083Z,85.78
2018-03-31T00:29:51.065Z,86.26
2018-03-31T00:30:51.049Z,86.07
2018-03-31T00:31:51.038Z,86.64
2018-03-31T00:32:51.021Z,86.64
2018-03-31T00:33:51.003Z,86.74
2018-03-31T00:34:50.992Z,86.35
2018-03-31T00:35:50.976Z,86.16
2018-03-31T00:36:50.964Z,86.45
2018-03-31T00:37:50.946Z,85.78
2018-03-31T00:38:50.938Z,85.88
2018-03-31T00:39:50.923Z,86.64
2018-03-31T00:40:50.909Z,87.12
2018-03-31T00:41:50.893Z,87.16
2018-03-31T00:42:50.877Z,87.45
2018-03-31T00:43:50.869Z,87.45
2018-03-31T00:44:50.855Z,87.45
2018-03-31T00:45:50.842Z,87.35
2018-03-31T00:46:50.819Z,88.11
2018-03-31T00:47:50.808Z,87.45
2018-03-31T00:48:50.792Z,87.92
2018-03-31T00:49:50.780Z,88.40
2018-03-31T00:50:50.766Z,88.30
2018-03-31T00:51:50.753Z,88.40
2018-03-31T00:52:50.737Z,88.78
2018-03-31T00:53:50.725Z,88.78
2018-03-31T00:54:50.709Z,88.68
2018-03-31T00:55:50.690Z,88.78
2018-03-31T00:56:50.685Z,88.21
2018-03-31T00:57:50.664Z,87.92
2018-03-31T00:58:50.650Z,87.54
2018-03-31T00:59:50.636Z,88.11
2018-03-31T01:00:50.624Z,87.73
2018-03-31T01:01:50.606Z,87.54
2018-03-31T01:02:50.590Z,87.07
2018-03-31T01:03:50.577Z,87.83
2018-03-31T01:04:50.563Z,87.45
2018-03-31T01:05:50.545Z,87.64
2018-03-31T01:06:50.543Z,87.83
2018-03-31T01:07:50.519Z,87.83
2018-03-31T01:08:50.511Z,87.92
2018-03-31T01:09:50.491Z,87.35
2018-03-31T01:10:50.507Z,87.26
2018-03-31T01:11:50.462Z,86.60
2018-03-31T01:12:50.446Z,86.31
2018-03-31T01:13:50.434Z,85.93
2018-03-31T01:14:50.417Z,86.50
2018-03-31T01:15:50.404Z,86.12
2018-03-31T01:16:50.389Z,86.03
2018-03-31T01:17:50.377Z,85.03
2018-03-31T01:18:50.365Z,84.94
2018-03-31T01:19:50.341Z,84.84
2018-03-31T01:20:50.331Z,84.99
2018-03-31T01:21:50.316Z,84.84
2018-03-31T01:22:50.303Z,84.89
2018-03-31T01:23:50.290Z,84.99
2018-03-31T01:24:50.271Z,84.80
2018-03-31T01:25:50.254Z,85.46
2018-03-31T01:26:50.250Z,85.84
2018-03-31T01:27:50.232Z,86.31
2018-03-31T01:28:50.216Z,86.41
2018-03-31T01:29:50.199Z,86.41
2018-03-31T01:30:50.188Z,85.65
2018-03-31T01:31:50.169Z,85.46
2018-03-31T01:32:50.155Z,85.65
2018-03-31T01:33:50.143Z,85.36
2018-03-31T01:34:50.124Z,85.65
2018-03-31T01:35:50.112Z,85.46
2018-03-31T01:36:50.098Z,85.74
2018-03-31T01:37:50.084Z,86.31
2018-03-31T01:38:50.067Z,86.22
2018-03-31T01:39:50.059Z,85.36
2018-03-31T01:40:50.042Z,84.99
2018-03-31T01:41:50.024Z,85.27
2018-03-31T01:42:50.010Z,84.32
2018-03-31T01:43:49.995Z,84.61
2018-03-31T01:44:49.982Z,84.70
2018-03-31T01:45:49.971Z,84.80
2018-03-31T01:46:49.953Z,84.80
2018-03-31T01:47:49.939Z,84.80
2018-03-31T01:48:49.921Z,84.89
2018-03-31T01:49:49.909Z,84.23
2018-03-31T01:50:49.892Z,84.13
2018-03-31T01:51:49.882Z,84.27
2018-03-31T01:52:49.862Z,84.51
2018-03-31T01:53:49.850Z,84.61
2018-03-31T01:54:49.844Z,84.99
2018-03-31T01:55:49.820Z,84.70
2018-03-31T01:56:49.806Z,85.46
2018-03-31T01:57:49.792Z,85.65
2018-03-31T01:58:49.781Z,85.74
2018-03-31T01:59:49.768Z,84.89
2018-03-31T02:00:49.751Z,85.08
2018-03-31T02:01:49.738Z,85.17
2018-03-31T02:02:49.722Z,85.36
2018-03-31T02:03:49.703Z,84.99
2018-03-31T02:04:49.690Z,84.80
2018-03-31T02:05:49.675Z,84.89
2018-03-31T02:06:49.671Z,85.27
2018-03-31T02:07:49.646Z,85.55
2018-03-31T02:08:49.632Z,86.12
2018-03-31T02:09:49.620Z,85.84
2018-03-31T02:10:49.598Z,86.22
2018-03-31T02:11:49.588Z,86.79
2018-03-31T02:12:49.574Z,87.07
2018-03-31T02:13:49.565Z,86.88
2018-03-31T02:14:49.544Z,87.26
2018-03-31T02:15:49.531Z,87.35
2018-03-31T02:16:49.522Z,87.16
2018-03-31T02:17:49.501Z,87.16
2018-03-31T02:18:49.487Z,87.45
2018-03-31T02:19:49.471Z,87.83
2018-03-31T02:20:49.456Z,87.45
2018-03-31T02:21:49.444Z,87.83
2018-03-31T02:22:49.431Z,87.07
2018-03-31T02:23:49.413Z,86.69
2018-03-31T02:24:49.458Z,87.07
2018-03-31T02:25:49.387Z,86.88
2018-03-31T02:26:49.371Z,86.69
2018-03-31T02:27:49.357Z,86.69
2018-03-31T02:28:49.341Z,86.50
2018-03-31T02:29:49.329Z,86.69
2018-03-31T02:30:49.312Z,87.45
2018-03-31T02:31:49.301Z,86.88
2018-03-31T02:32:49.280Z,87.07
2018-03-31T02:33:49.278Z,86.60
2018-03-31T02:34:49.257Z,86.69
2018-03-31T02:35:49.238Z,86.69
2018-03-31T02:36:49.227Z,86.60
2018-03-31T02:37:49.212Z,86.60
2018-03-31T02:38:49.199Z,86.60
2018-03-31T02:39:49.183Z,86.88
2018-03-31T02:40:49.171Z,86.98
2018-03-31T02:41:49.151Z,86.79
2018-03-31T02:42:49.138Z,86.31
2018-03-31T02:43:49.119Z,85.84
2018-03-31T02:44:49.105Z,85.93
2018-03-31T02:45:49.096Z,85.36
2018-03-31T02:46:49.078Z,84.80
2018-03-31T02:47:49.066Z,84.80
2018-03-31T02:48:49.055Z,84.80
2018-03-31T02:49:49.040Z,85.36
2018-03-31T02:50:49.018Z,85.46
2018-03-31T02:51:49.009Z,85.84
2018-03-31T02:52:48.988Z,86.12
2018-03-31T02:53:48.977Z,85.55
2018-03-31T02:54:48.961Z,85.36
2018-03-31T02:55:48.949Z,85.36
2018-03-31T02:56:48.933Z,84.99
2018-03-31T02:57:48.915Z,85.08
2018-03-31T02:58:48.902Z,84.80
2018-03-31T02:59:48.892Z,84.70
2018-03-31T03:00:48.878Z,84.70
2018-03-31T03:01:48.858Z,84.32
2018-03-31T03:02:48.846Z,83.75
2018-03-31T03:03:48.826Z,83.75
2018-03-31T03:04:48.821Z,83.94
2018-03-31T03:05:48.799Z,83.94
2018-03-31T03:06:48.785Z,83.66
2018-03-31T03:07:48.773Z,83.75
2018-03-31T03:08:48.754Z,83.75
2018-03-31T03:09:48.741Z,83.85
2018-03-31T03:10:48.733Z,84.04
2018-03-31T03:11:48.712Z,83.66
2018-03-31T03:12:48.699Z,84.23
2018-03-31T03:13:48.684Z,83.37
2018-03-31T03:14:48.673Z,83.37
2018-03-31T03:15:48.652Z,83.37
2018-03-31T03:16:48.641Z,83.75
2018-03-31T03:17:48.620Z,83.75
2018-03-31T03:18:48.611Z,84.42
2018-03-31T03:19:48.602Z,84.70
2018-03-31T03:20:48.582Z,85.17
2018-03-31T03:21:48.564Z,86.03
2018-03-31T03:22:48.552Z,86.41
2018-03-31T03:23:48.538Z,86.79
2018-03-31T03:24:48.527Z,86.79
2018-03-31T03:25:48.510Z,86.69
2018-03-31T03:26:48.494Z,86.12
2018-03-31T03:27:48.475Z,86.41
2018-03-31T03:28:48.465Z,85.65
2018-03-31T03:29:48.445Z,85.84
2018-03-31T03:30:48.436Z,86.22
2018-03-31T03:31:48.419Z,85.55
2018-03-31T03:32:48.406Z,85.36
2018-03-31T03:33:48.388Z,85.46
2018-03-31T03:34:48.373Z,85.46
2018-03-31T03:35:48.359Z,85.27
2018-03-31T03:36:48.344Z,84.80
2018-03-31T03:37:48.331Z,85.46
2018-03-31T03:38:48.316Z,85.27
2018-03-31T03:39:48.312Z,85.46
2018-03-31T03:40:48.292Z,85.93
2018-03-31T03:41:48.268Z,85.36
2018-03-31T03:42:48.257Z,85.55
2018-03-31T03:43:48.244Z,85.46
2018-03-31T03:44:48.230Z,85.27
2018-03-31T03:45:48.212Z,85.74
2018-03-31T03:46:48.196Z,85.93
2018-03-31T03:47:48.187Z,86.41
2018-03-31T03:48:48.171Z,87.16
2018-03-31T03:49:48.155Z,86.31
2018-03-31T03:50:48.139Z,86.31
2018-03-31T03:51:48.124Z,86.60
2018-03-31T03:52:48.114Z,86.79
2018-03-31T03:53:48.094Z,86.88
2018-03-31T03:54:48.084Z,87.64
2018-03-31T03:55:48.067Z,87.64
2018-03-31T03:56:48.056Z,87.64
2018-03-31T03:57:48.037Z,88.02
2018-03-31T03:58:48.020Z,87.83
2018-03-31T03:59:48.010Z,88.40
2018-03-31T04:00:47.990Z,87.50
2018-03-31T04:01:47.978Z,88.02
2018-03-31T04:02:47.965Z,88.11
2018-03-31T04:03:47.946Z,88.21
2018-03-31T04:04:47.930Z,88.26
2018-03-31T04:05:47.927Z,87.78
2018-03-31T04:06:47.905Z,87.54
2018-03-31T04:07:47.884Z,88.21
2018-03-31T04:08:47.877Z,88.26
2018-03-31T04:09:47.854Z,89.01
2018-03-31T04:10:47.844Z,89.39
2018-03-31T04:11:47.828Z,89.20
2018-03-31T04:12:47.808Z,89.49
2018-03-31T04:13:47.800Z,89.30
2018-03-31T04:14:47.787Z,89.30
2018-03-31T04:15:47.774Z,88.73
2018-03-31T04:16:47.752Z,89.49
2018-03-31T04:17:47.740Z,88.92
2018-03-31T04:18:47.722Z,88.82
2018-03-31T04:19:47.708Z,89.39
2018-03-31T04:20:47.698Z,88.64
2018-03-31T04:21:47.685Z,89.11
2018-03-31T04:22:47.667Z,89.30
2018-03-31T04:23:47.652Z,89.30
2018-03-31T04:24:47.640Z,88.82
2018-03-31T04:25:47.625Z,88.73
2018-03-31T04:26:47.618Z,88.11
2018-03-31T04:27:47.595Z,88.49
2018-03-31T04:28:47.575Z,88.02
2018-03-31T04:29:47.577Z,88.11
2018-03-31T04:30:47.547Z,88.02
2018-03-31T04:31:47.530Z,88.02
2018-03-31T04:32:47.514Z,87.07
2018-03-31T04:33:47.502Z,87.73
2018-03-31T04:34:47.486Z,87.73
2018-03-31T04:35:47.477Z,87.83
2018-03-31T04:36:47.459Z,87.35
2018-03-31T04:37:47.444Z,86.79
2018-03-31T04:38:47.434Z,87.54
2018-03-31T04:39:47.414Z,87.35
2018-03-31T04:40:47.402Z,87.16
2018-03-31T04:41:47.381Z,87.07
2018-03-31T04:42:47.368Z,87.16
2018-03-31T04:43:47.356Z,87.45
2018-03-31T04:44:47.341Z,86.98
2018-03-31T04:45:47.325Z,87.45
2018-03-31T04:46:47.308Z,87.35
2018-03-31T04:47:47.294Z,87.16
2018-03-31T04:48:47.279Z,87.45
2018-03-31T04:49:47.264Z,87.35
2018-03-31T04:50:47.252Z,87.92
2018-03-31T04:51:47.233Z,87.73
2018-03-31T04:52:47.219Z,88.78
2018-03-31T04:53:47.210Z,88.40
2018-03-31T04:54:47.195Z,88.73
2018-03-31T04:55:47.177Z,89.20
2018-03-31T04:56:47.158Z,89.20
2018-03-31T04:57:47.145Z,89.39
2018-03-31T04:58:47.130Z,89.20
2018-03-31T04:59:47.121Z,89.39
2018-03-31T05:00:47.101Z,89.63
2018-03-31T05:01:47.085Z,89.39
2018-03-31T05:02:47.074Z,89.20
2018-03-31T05:03:47.063Z,89.25
2018-03-31T05:04:47.047Z,88.92
2018-03-31T05:05:47.028Z,88.78
2018-03-31T05:06:47.012Z,89.44
2018-03-31T05:07:47.001Z,89.06
2018-03-31T05:08:46.994Z,89.20
2018-03-31T05:09:46.971Z,89.82
2018-03-31T05:10:46.956Z,89.53
2018-03-31T05:11:46.940Z,89.82
2018-03-31T05:12:46.920Z,89.34
2018-03-31T05:13:46.908Z,89.72
2018-03-31T05:14:46.898Z,90.06
2018-03-31T05:15:46.878Z,90.06
2018-03-31T05:16:46.866Z,90.25
2018-03-31T05:17:46.848Z,90.15
2018-03-31T05:18:46.837Z,90.15
2018-03-31T05:19:46.819Z,90.53
2018-03-31T05:20:46.803Z,89.96
2018-03-31T05:21:46.792Z,90.91
2018-03-31T05:22:46.783Z,90.63
2018-03-31T05:23:46.762Z,90.58
2018-03-31T05:24:46.740Z,90.77
2018-03-31T05:25:46.731Z,90.53
2018-03-31T05:26:46.717Z,90.01
2018-03-31T05:27:46.706Z,90.39
2018-03-31T05:28:46.688Z,90.01
2018-03-31T05:29:46.676Z,90.39
2018-03-31T05:30:46.654Z,90.29
2018-03-31T05:31:46.649Z,89.72
2018-03-31T05:32:46.628Z,89.34
2018-03-31T05:33:46.614Z,88.78
2018-03-31T05:34:46.598Z,89.06
2018-03-31T05:35:46.588Z,89.53
2018-03-31T05:36:46.566Z,89.53
2018-03-31T05:37:46.545Z,89.53
2018-03-31T05:38:46.542Z,89.68
2018-03-31T05:39:46.521Z,90.25
2018-03-31T05:40:46.507Z,90.34
2018-03-31T05:41:46.493Z,91.19
2018-03-31T05:42:46.476Z,91.38
2018-03-31T05:43:46.464Z,91.67
2018-03-31T05:44:46.448Z,92.24
2018-03-31T05:45:46.435Z,92.05
2018-03-31T05:46:46.415Z,92.24
2018-03-31T05:47:46.401Z,92.05
2018-03-31T05:48:46.386Z,92.24
2018-03-31T05:49:46.374Z,91.48
2018-03-31T05:50:46.360Z,91.48
2018-03-31T05:51:46.343Z,91.29
2018-03-31T05:52:46.328Z,91.43
2018-03-31T05:53:46.314Z,91.14
2018-03-31T05:54:46.304Z,91.24
2018-03-31T05:55:46.285Z,91.43
2018-03-31T05:56:46.277Z,90.77
2018-03-31T05:57:46.260Z,90.95
2018-03-31T05:58:46.256Z,90.20
2018-03-31T05:59:46.226Z,89.34
2018-03-31T06:00:46.212Z,89.34
2018-03-31T06:01:46.192Z,88.68
2018-03-31T06:02:46.184Z,88.30
2018-03-31T06:03:46.163Z,88.49
2018-03-31T06:04:46.152Z,88.02
2018-03-31T06:05:46.138Z,87.73
2018-03-31T06:06:46.124Z,87.73
2018-03-31T06:07:46.104Z,87.64
2018-03-31T06:08:46.089Z,87.83
2018-03-31T06:09:46.075Z,87.54
2018-03-31T06:10:46.071Z,88.02
2018-03-31T06:11:46.056Z,88.11
2018-03-31T06:12:46.032Z,88.02
2018-03-31T06:13:46.016Z,87.73
2018-03-31T06:14:46.002Z,87.83
2018-03-31T06:15:45.988Z,87.64
2018-03-31T06:16:45.977Z,87.83
2018-03-31T06:17:45.965Z,88.11
2018-03-31T06:18:45.942Z,87.35
2018-03-31T06:19:45.928Z,87.45
2018-03-31T06:20:45.924Z,88.35
2018-03-31T06:21:45.896Z,88.11
2018-03-31T06:22:45.890Z,87.73
2018-03-31T06:23:45.873Z,87.87
2018-03-31T06:24:45.854Z,88.25
2018-03-31T06:25:45.849Z,87.02
2018-03-31T06:26:45.826Z,87.30
2018-03-31T06:27:45.812Z,87.59
2018-03-31T06:28:45.802Z,86.45
2018-03-31T06:29:45.788Z,85.88
2018-03-31T06:30:45.779Z,85.45
2018-03-31T06:31:45.753Z,84.98
2018-03-31T06:32:45.739Z,84.50
2018-03-31T06:33:45.731Z,84.31
2018-03-31T06:34:45.711Z,84.03
2018-03-31T06:35:45.699Z,84.31
2018-03-31T06:36:45.683Z,84.03
2018-03-31T06:37:45.669Z,83.36
2018-03-31T06:38:45.654Z,83.36
2018-03-31T06:39:45.641Z,83.03
2018-03-31T06:40:45.628Z,82.70
2018-03-31T06:41:45.613Z,82.08
2018-03-31T06:42:45.600Z,81.79
2018-03-31T06:43:45.590Z,81.79
2018-03-31T06:44:45.567Z,81.04
2018-03-31T06:45:45.563Z,80.65
2018-03-31T06:46:45.601Z,80.56
2018-03-31T06:47:45.525Z,80.27
2018-03-31T06:48:45.511Z,80.27
2018-03-31T06:49:45.504Z,80.65
2018-03-31T06:50:45.487Z,80.37
2018-03-31T06:51:45.469Z,79.90
2018-03-31T06:52:45.501Z,79.99
2018-03-31T06:53:45.442Z,80.08
2018-03-31T06:54:45.433Z,80.37
2018-03-31T06:55:45.419Z,80.65
2018-03-31T06:56:45.401Z,80.08
2018-03-31T06:57:45.389Z,80.94
2018-03-31T06:58:45.371Z,81.04
2018-03-31T06:59:45.359Z,81.51
2018-03-31T07:00:45.349Z,81.98
2018-03-31T07:01:45.331Z,82.08
2018-03-31T07:02:45.319Z,82.23
2018-03-31T07:03:45.308Z,82.84
2018-03-31T07:04:45.292Z,82.74
2018-03-31T07:05:45.276Z,82.84
2018-03-31T07:06:45.262Z,82.74
2018-03-31T07:07:45.250Z,97.07
2018-03-31T07:08:45.232Z,99.99
2018-03-31T07:09:45.220Z,92.94
2018-03-31T07:10:45.210Z,76.94
2018-03-31T07:11:45.209Z,68.33
2018-03-31T07:12:45.179Z,67.86
2018-03-31T07:13:45.169Z,68.21
2018-03-31T07:14:45.153Z,69.60
2018-03-31T07:15:45.147Z,70.99
2018-03-31T07:16:45.125Z,72.41
2018-03-31T07:17:45.115Z,73.61
2018-03-31T07:18:45.099Z,74.66
2018-03-31T07:19:45.089Z,75.76
2018-03-31T07:20:45.070Z,77.28
2018-03-31T07:21:45.068Z,77.56
2018-03-31T07:22:45.044Z,77.84
2018-03-31T07:23:45.035Z,78.56
2018-03-31T07:24:45.017Z,78.95
2018-03-31T07:25:45.002Z,79.90
2018-03-31T07:26:44.990Z,80.08
2018-03-31T07:27:44.975Z,80.65
2018-03-31T07:28:44.967Z,80.75
2018-03-31T07:29:44.949Z,81.04
2018-03-31T07:30:44.941Z,81.51
2018-03-31T07:31:44.925Z,80.94
2018-03-31T07:32:44.915Z,80.46
2018-03-31T07:33:44.897Z,80.27
2018-03-31T07:34:44.888Z,81.23
2018-03-31T07:35:44.872Z,80.84
2018-03-31T07:36:44.856Z,80.65
2018-03-31T07:37:44.843Z,79.61
2018-03-31T07:38:44.828Z,80.46
2018-03-31T07:39:44.811Z,80.37
2018-03-31T07:40:44.819Z,79.99
2018-03-31T07:41:44.787Z,79.42
2018-03-31T07:42:44.769Z,79.61
2018-03-31T07:43:44.756Z,78.75
2018-03-31T07:44:44.742Z,78.80
2018-03-31T07:45:44.731Z,78.61
2018-03-31T07:46:44.720Z,78.99
2018-03-31T07:47:44.704Z,78.70
2018-03-31T07:48:44.689Z,78.51
2018-03-31T07:49:44.675Z,78.80
2018-03-31T07:50:44.665Z,78.70
2018-03-31T07:51:44.652Z,78.89
2018-03-31T07:52:44.632Z,78.51
2018-03-31T07:53:44.620Z,78.61
2018-03-31T07:54:44.610Z,78.80
2018-03-31T07:55:44.596Z,78.51
2018-03-31T07:56:44.580Z,78.75
2018-03-31T07:57:44.570Z,78.95
2018-03-31T07:58:44.556Z,78.70
2018-03-31T07:59:44.547Z,78.42
2018-03-31T08:00:44.529Z,78.42
2018-03-31T08:01:44.513Z,77.84
2018-03-31T08:02:44.503Z,77.66
2018-03-31T08:03:44.489Z,77.37
2018-03-31T08:04:44.475Z,77.56
2018-03-31T08:05:44.461Z,77.56
2018-03-31T08:06:44.449Z,77.56
2018-03-31T08:07:44.441Z,77.09
2018-03-31T08:08:44.420Z,76.99
2018-03-31T08:09:44.409Z,77.28
2018-03-31T08:10:44.396Z,77.75
2018-03-31T08:11:44.383Z,77.94
2018-03-31T08:12:44.362Z,78.19
2018-03-31T08:13:44.352Z,78.19
2018-03-31T08:14:44.338Z,79.23
2018-03-31T08:15:44.328Z,79.14
2018-03-31T08:16:44.383Z,79.04
2018-03-31T08:17:44.358Z,79.04
2018-03-31T08:18:44.287Z,79.61
2018-03-31T08:19:44.277Z,80.08
2018-03-31T08:20:44.266Z,80.46
2018-03-31T08:21:44.245Z,80.27
2018-03-31T08:22:44.235Z,80.18
2018-03-31T08:23:44.217Z,79.80
2018-03-31T08:24:44.207Z,79.99
2018-03-31T08:25:44.196Z,79.65
2018-03-31T08:26:44.184Z,78.89
2018-03-31T08:27:44.168Z,78.99
2018-03-31T08:28:44.152Z,78.80
2018-03-31T08:29:44.134Z,79.27
2018-03-31T08:30:44.126Z,79.08
2018-03-31T08:31:44.117Z,78.45
2018-03-31T08:32:44.099Z,77.79
2018-03-31T08:33:44.087Z,77.22
2018-03-31T08:34:44.073Z,76.65
2018-03-31T08:35:44.061Z,75.99
2018-03-31T08:36:44.047Z,75.60
2018-03-31T08:37:44.031Z,75.32
2018-03-31T08:38:44.025Z,75.23
2018-03-31T08:39:44.009Z,74.94
2018-03-31T08:40:43.995Z,74.94
2018-03-31T08:41:44.001Z,74.85
2018-03-31T08:42:43.971Z,74.47
2018-03-31T08:43:43.959Z,74.18
2018-03-31T08:44:43.951Z,75.23
2018-03-31T08:45:43.931Z,75.89
2018-03-31T08:46:43.918Z,76.61
2018-03-31T08:47:43.897Z,77.09
2018-03-31T08:48:43.889Z,77.41
2018-03-31T08:49:43.875Z,77.98
2018-03-31T08:50:43.865Z,77.66
2018-03-31T08:51:43.853Z,77.89
2018-03-31T08:52:43.834Z,78.36
2018-03-31T08:53:43.824Z,78.27
2018-03-31T08:54:43.812Z,77.89
2018-03-31T08:55:43.803Z,77.79
2018-03-31T08:56:43.790Z,77.89
2018-03-31T08:57:43.775Z,77.47
2018-03-31T08:58:43.759Z,77.60
2018-03-31T08:59:43.745Z,76.56
2018-03-31T09:00:43.735Z,76.37
2018-03-31T09:01:43.721Z,75.70
2018-03-31T09:02:43.711Z,75.04
2018-03-31T09:03:43.782Z,75.79
2018-03-31T09:04:43.680Z,75.89
2018-03-31T09:05:43.668Z,75.99
2018-03-31T09:06:43.659Z,75.42
2018-03-31T09:07:43.640Z,74.69
2018-03-31T09:08:43.628Z,74.60
2018-03-31T09:09:43.618Z,73.93
2018-03-31T09:10:43.604Z,74.12
2018-03-31T09:11:43.598Z,74.08
2018-03-31T09:12:43.585Z,74.12
2018-03-31T09:13:43.563Z,74.37
2018-03-31T09:14:43.556Z,73.99
2018-03-31T09:15:43.541Z,74.47
2018-03-31T09:16:43.593Z,74.66
2018-03-31T09:17:43.517Z,74.47
2018-03-31T09:18:43.505Z,75.42
2018-03-31T09:19:43.493Z,75.60
2018-03-31T09:20:43.478Z,75.23
2018-03-31T09:21:43.466Z,75.32
2018-03-31T09:22:45.782Z,75.13
2018-03-31T09:23:43.443Z,75.13
2018-03-31T09:24:44.450Z,74.75
2018-03-31T09:25:43.415Z,74.51
2018-03-31T09:26:43.404Z,74.79
2018-03-31T09:27:43.390Z,74.79
2018-03-31T09:28:43.377Z,74.03
2018-03-31T09:29:43.360Z,74.41
2018-03-31T09:30:43.343Z,74.31
2018-03-31T09:31:43.341Z,74.51
2018-03-31T09:32:43.328Z,74.79
2018-03-31T09:33:43.315Z,74.60
2018-03-31T09:34:43.297Z,74.51
2018-03-31T09:35:43.287Z,74.16
2018-03-31T09:36:43.275Z,73.97
2018-03-31T09:37:43.261Z,73.30
2018-03-31T09:38:43.249Z,73.11
2018-03-31T09:39:43.243Z,72.74
2018-03-31T09:40:43.225Z,72.92
2018-03-31T09:41:43.214Z,73.21
2018-03-31T09:42:43.197Z,72.74
2018-03-31T09:43:43.187Z,72.83
2018-03-31T09:44:43.170Z,72.83
2018-03-31T09:45:43.162Z,72.45
2018-03-31T09:46:43.240Z,72.26
2018-03-31T09:47:43.136Z,72.64
2018-03-31T09:48:43.121Z,73.40
2018-03-31T09:49:43.111Z,73.02
2018-03-31T09:50:43.101Z,72.83
2018-03-31T09:51:43.090Z,72.55
2018-03-31T09:52:43.081Z,71.69
2018-03-31T09:53:43.061Z,72.07
2018-03-31T09:54:43.051Z,71.50
2018-03-31T09:55:43.042Z,71.78
2018-03-31T09:56:43.028Z,71.88
2018-03-31T09:57:43.016Z,71.41
2018-03-31T09:58:43.006Z,71.69
2018-03-31T09:59:42.989Z,71.69
2018-03-31T10:00:42.978Z,70.83
2018-03-31T10:01:42.967Z,71.69
2018-03-31T10:02:42.953Z,71.69
2018-03-31T10:03:42.939Z,71.41
2018-03-31T10:04:42.929Z,71.41
2018-03-31T10:05:42.914Z,71.69
2018-03-31T10:06:42.905Z,71.59
2018-03-31T10:07:42.893Z,71.41
2018-03-31T10:08:42.877Z,71.59
2018-03-31T10:09:42.862Z,71.59
2018-03-31T10:10:42.854Z,71.50
2018-03-31T10:11:42.845Z,71.88
2018-03-31T10:12:42.833Z,72.16
2018-03-31T10:13:42.816Z,71.88
2018-03-31T10:14:42.805Z,71.78
2018-03-31T10:15:42.795Z,71.97
2018-03-31T10:16:42.780Z,71.69
2018-03-31T10:17:42.765Z,71.59
2018-03-31T10:18:42.755Z,71.12
2018-03-31T10:19:42.743Z,70.97
2018-03-31T10:20:42.730Z,70.20
2018-03-31T10:21:42.717Z,69.25
2018-03-31T10:22:42.711Z,68.21
2018-03-31T10:23:42.704Z,68.21
2018-03-31T10:24:42.683Z,68.11
2018-03-31T10:25:42.682Z,68.59
2018-03-31T10:26:42.656Z,68.68
2018-03-31T10:27:42.649Z,69.54
2018-03-31T10:28:42.635Z,69.63
2018-03-31T10:29:42.627Z,70.30
2018-03-31T10:30:42.612Z,71.15
2018-03-31T10:31:42.600Z,70.58
2018-03-31T10:32:42.586Z,70.93
2018-03-31T10:33:42.572Z,71.02
2018-03-31T10:34:42.571Z,70.93
2018-03-31T10:35:42.553Z,71.02
2018-03-31T10:36:42.537Z,71.22
2018-03-31T10:37:42.523Z,70.74
2018-03-31T10:38:42.514Z,70.54
2018-03-31T10:39:42.501Z,70.54
2018-03-31T10:40:42.493Z,71.22
2018-03-31T10:41:42.485Z,71.50
2018-03-31T10:42:42.516Z,71.22
2018-03-31T10:43:42.458Z,70.64
2018-03-31T10:44:42.443Z,70.74
2018-03-31T10:45:42.431Z,70.64
2018-03-31T10:46:42.430Z,70.93
2018-03-31T10:47:42.406Z,70.87
2018-03-31T10:48:42.394Z,70.30
2018-03-31T10:49:42.384Z,70.01
2018-03-31T10:50:42.371Z,70.10
2018-03-31T10:51:42.356Z,69.95
2018-03-31T10:52:42.348Z,69.19
2018-03-31T10:53:42.334Z,68.33
2018-03-31T10:54:42.327Z,68.24
2018-03-31T10:55:42.314Z,67.63
2018-03-31T10:56:42.301Z,68.59
2018-03-31T10:57:42.289Z,69.06
2018-03-31T10:58:42.275Z,68.77
2018-03-31T10:59:42.264Z,68.77
2018-03-31T11:00:42.256Z,70.10
2018-03-31T11:01:42.246Z,70.20
2018-03-31T11:02:42.233Z,70.10
2018-03-31T11:03:42.223Z,69.82
2018-03-31T11:04:42.208Z,69.73
2018-03-31T11:05:42.198Z,69.73
2018-03-31T11:06:42.202Z,69.15
2018-03-31T11:07:42.172Z,68.59
2018-03-31T11:08:42.160Z,68.96
2018-03-31T11:09:42.146Z,69.25
2018-03-31T11:10:42.134Z,68.43
2018-03-31T11:11:42.145Z,68.33
2018-03-31T11:12:42.111Z,68.33
2018-03-31T11:13:42.094Z,68.24
2018-03-31T11:14:42.088Z,68.71
2018-03-31T11:15:42.074Z,68.43
2018-03-31T11:16:42.065Z,68.15
2018-03-31T11:17:42.051Z,68.01
2018-03-31T11:18:42.043Z,68.96
2018-03-31T11:19:42.026Z,69.73
2018-03-31T11:20:42.022Z,69.50
2018-03-31T11:21:42.009Z,71.12
2018-03-31T11:22:42.000Z,71.97
2018-03-31T11:23:41.989Z,72.07
2018-03-31T11:24:41.971Z,72.26
2018-03-31T11:25:41.969Z,72.74
2018-03-31T11:26:41.958Z,73.30
2018-03-31T11:27:41.937Z,73.11
2018-03-31T11:28:41.922Z,73.49
2018-03-31T11:29:41.914Z,73.55
2018-03-31T11:30:41.896Z,73.69
2018-03-31T11:31:41.890Z,73.69
2018-03-31T11:32:41.881Z,73.69
2018-03-31T11:33:41.863Z,73.97
2018-03-31T11:34:41.855Z,73.34
2018-03-31T11:35:41.847Z,72.67
2018-03-31T11:36:41.830Z,71.44
2018-03-31T11:37:41.815Z,70.58
2018-03-31T11:38:41.808Z,70.97
2018-03-31T11:39:41.791Z,70.10
2018-03-31T11:40:41.781Z,70.77
2018-03-31T11:41:41.772Z,69.92
2018-03-31T11:42:41.760Z,70.10
2018-03-31T11:43:41.750Z,71.06
2018-03-31T11:44:41.732Z,71.25
2018-03-31T11:45:41.728Z,71.44
2018-03-31T11:46:41.715Z,71.06
2018-03-31T11:47:41.699Z,71.91
2018-03-31T11:48:41.690Z,71.88
2018-03-31T11:49:41.673Z,71.78
2018-03-31T11:50:41.666Z,72.55
2018-03-31T11:51:41.654Z,72.64
2018-03-31T11:52:41.638Z,72.64
2018-03-31T11:53:41.630Z,72.16
2018-03-31T11:54:41.618Z,72.64
2018-03-31T11:55:41.609Z,72.35
2018-03-31T11:56:41.598Z,73.02
2018-03-31T11:57:41.579Z,73.02
2018-03-31T11:58:41.569Z,72.74
2018-03-31T11:59:41.558Z,72.26
2018-03-31T12:00:41.542Z,73.40
2018-03-31T12:01:41.534Z,73.72
2018-03-31T12:02:41.522Z,72.55
2018-03-31T12:03:41.513Z,71.78
2018-03-31T12:04:41.505Z,72.26
2018-03-31T12:05:41.484Z,72.86
2018-03-31T12:06:41.476Z,73.44
2018-03-31T12:07:41.463Z,72.96
2018-03-31T12:08:41.450Z,72.49
2018-03-31T12:09:41.438Z,72.49
2018-03-31T12:10:41.431Z,71.53
2018-03-31T12:11:41.415Z,71.15
2018-03-31T12:12:41.408Z,71.06
2018-03-31T12:13:41.391Z,71.63
2018-03-31T12:14:41.386Z,72.58
2018-03-31T12:15:41.368Z,72.77
2018-03-31T12:16:41.358Z,72.49
2018-03-31T12:17:41.346Z,71.91
2018-03-31T12:18:41.334Z,71.63
2018-03-31T12:19:41.323Z,71.15
2018-03-31T12:20:41.316Z,71.12
2018-03-31T12:21:41.296Z,71.59
2018-03-31T12:22:41.288Z,72.55
2018-03-31T12:23:41.273Z,73.21
2018-03-31T12:24:41.263Z,74.07
2018-03-31T12:25:41.248Z,74.69
2018-03-31T12:26:41.239Z,74.41
2018-03-31T12:27:41.223Z,74.41
2018-03-31T12:28:41.213Z,75.17
2018-03-31T12:29:41.201Z,75.45
2018-03-31T12:30:41.191Z,75.36
2018-03-31T12:31:41.180Z,75.17
2018-03-31T12:32:41.163Z,75.17
2018-03-31T12:33:41.158Z,76.31
2018-03-31T12:34:41.146Z,75.84
2018-03-31T12:35:41.127Z,75.36
2018-03-31T12:36:41.167Z,76.03
2018-03-31T12:37:41.105Z,75.79
2018-03-31T12:38:41.105Z,75.99
2018-03-31T12:39:41.090Z,76.56
2018-03-31T12:40:41.088Z,76.69
2018-03-31T12:41:41.060Z,76.69
2018-03-31T12:42:41.045Z,76.59
2018-03-31T12:43:41.038Z,76.31
2018-03-31T12:44:41.025Z,76.50
2018-03-31T12:45:41.008Z,76.88
2018-03-31T12:46:40.998Z,75.79
2018-03-31T12:47:40.985Z,75.32
2018-03-31T12:48:40.968Z,75.79
2018-03-31T12:49:40.959Z,75.99
2018-03-31T12:50:40.947Z,76.18
2018-03-31T12:51:40.955Z,76.27
2018-03-31T12:52:40.915Z,76.75